Time;durP1;ratioP1;P1;durP2;ratioP2;P2;SDS_P1;SDS_P2;PMS_P1;PMS_P2;Temp;Humidity;BMP_temperature;BMP_pressure;BME280_temperature;BME280_humidity;BME280_pressure;Samples;Min_cycle;Max_cycle;Signal;HPM_P1;HPM_P2
2023/05/24 00:01:24;;;;;;;72.60;6.40;;;11.80;4.30;;;;;;4882370;29;20162;-81
2023/05/24 00:03:53;;;;;;;71.47;8.90;;;11.70;10.40;;;;;;4882493;29;20151;-81
2023/05/24 00:06:19;;;;;;;77.40;7.38;;;11.80;6.60;;;;;;4881289;29;20312;-81
2023/05/24 00:08:45;;;;;;;72.00;6.60;;;11.70;6.70;;;;;;4882184;29;20171;-81
2023/05/24 00:11:11;;;;;;;74.60;7.45;;;11.60;11.40;;;;;;4882019;29;20249;-81
2023/05/24 00:13:37;;;;;;;78.05;7.35;;;11.40;13.20;;;;;;4882792;29;20175;-81
2023/05/24 00:16:03;;;;;;;68.53;6.63;;;11.30;15.90;;;;;;4880894;29;20198;-81
2023/05/24 00:18:32;;;;;;;74.15;7.07;;;11.40;18.20;;;;;;4882819;29;20174;-81
2023/05/24 00:20:58;;;;;;;72.50;6.35;;;11.20;19.00;;;;;;4881248;29;20185;-81
2023/05/24 00:23:24;;;;;;;75.07;7.27;;;11.30;16.60;;;;;;4883059;29;20534;-81
2023/05/24 00:25:51;;;;;;;69.60;6.72;;;11.20;25.80;;;;;;4880608;29;20462;-81
2023/05/24 00:28:16;;;;;;;75.28;7.78;;;11.20;30.70;;;;;;4880985;29;20170;-81
2023/05/24 00:30:42;;;;;;;68.87;5.57;;;11.20;24.90;;;;;;4883085;29;20202;-81
2023/05/24 00:33:08;;;;;;;73.77;5.70;;;11.30;20.80;;;;;;4880865;29;20171;-81
2023/05/24 00:35:34;;;;;;;72.67;6.23;;;11.40;14.70;;;;;;4881653;29;20419;-81
2023/05/24 00:38:00;;;;;;;75.00;5.77;;;11.20;20.50;;;;;;4881950;29;20539;-81
2023/05/24 00:40:25;;;;;;;74.13;7.40;;;11.10;21.30;;;;;;4882127;29;20175;-81
2023/05/24 00:42:51;;;;;;;70.80;6.63;;;11.00;30.70;;;;;;4881958;29;20178;-81
2023/05/24 00:45:17;;;;;;;69.43;6.40;;;10.90;37.90;;;;;;4881603;29;20203;-81
2023/05/24 00:47:43;;;;;;;68.20;5.77;;;10.70;40.60;;;;;;4881852;29;20190;-81
2023/05/24 00:50:15;;;;;;;69.20;5.22;;;10.70;43.90;;;;;;4880529;29;20178;-81
2023/05/24 00:52:42;;;;;;;69.07;5.53;;;10.50;53.40;;;;;;4882765;29;20159;-81
2023/05/24 00:55:08;;;;;;;75.93;6.20;;;10.50;53.30;;;;;;4880641;29;20307;-81
2023/05/24 00:57:37;;;;;;;68.68;5.97;;;10.30;58.80;;;;;;4881894;29;20265;-81
2023/05/24 01:00:04;;;;;;;69.38;6.13;;;10.10;71.20;;;;;;4881721;29;20245;-81
2023/05/24 01:02:31;;;;;;;69.32;6.80;;;10.00;76.00;;;;;;4880732;29;20329;-81
2023/05/24 01:04:58;;;;;;;70.90;7.18;;;9.90;81.20;;;;;;4884896;29;20210;-81
2023/05/24 01:07:31;;;;;;;70.75;6.40;;;9.80;86.00;;;;;;4884826;29;20238;-81
2023/05/24 01:10:21;;;;;;;72.90;6.60;;;9.70;90.60;;;;;;4885637;29;20186;-81
2023/05/24 01:12:58;;;;;;;71.85;7.75;;;9.50;94.10;;;;;;4883597;29;20173;-81
2023/05/24 01:15:42;;;;;;;75.15;7.90;;;9.40;95.30;;;;;;4885379;29;20623;-81
2023/05/24 01:18:15;;;;;;;67.57;7.60;;;9.30;96.30;;;;;;4885980;29;20247;-80
2023/05/24 01:20:42;;;;;;;77.18;8.52;;;9.30;98.40;;;;;;4884350;29;20185;-81
2023/05/24 01:23:27;;;;;;;70.28;6.90;;;9.20;98.50;;;;;;4883757;29;20196;-81
2023/05/24 01:26:31;;;;;;;72.32;8.70;;;9.10;99.90;;;;;;4884964;29;20213;-81
2023/05/24 01:28:58;;;;;;;67.78;8.48;;;9.10;99.90;;;;;;4846319;29;20183;-81
2023/05/24 01:31:24;;;;;;;76.32;12.00;;;9.10;99.90;;;;;;4884900;29;20166;-81
2023/05/24 01:33:50;;;;;;;73.82;11.35;;;9.10;99.90;;;;;;4883538;29;20179;-81
2023/05/24 01:36:16;;;;;;;69.37;10.27;;;9.00;99.90;;;;;;4884477;29;20182;-81
2023/05/24 01:38:42;;;;;;;72.53;10.27;;;9.00;99.90;;;;;;4884264;29;20235;-81
2023/05/24 01:41:36;;;;;;;75.32;12.35;;;8.90;99.90;;;;;;4882950;29;20242;-81
2023/05/24 01:44:23;;;;;;;72.88;11.63;;;8.90;99.90;;;;;;4884345;29;20181;-81
2023/05/24 01:46:59;;;;;;;67.78;9.50;;;8.90;99.90;;;;;;4882974;29;20194;-81
2023/05/24 01:49:33;;;;;;;71.85;11.77;;;8.80;99.90;;;;;;4884450;29;20155;-81
2023/05/24 01:52:11;;;;;;;73.82;11.35;;;8.80;99.90;;;;;;4883865;29;20163;-81
2023/05/24 01:54:41;;;;;;;77.13;10.02;;;8.80;99.90;;;;;;4884538;29;20159;-81
2023/05/24 01:57:09;;;;;;;70.60;12.52;;;8.80;99.90;;;;;;4884469;29;20226;-81
2023/05/24 01:59:36;;;;;;;72.63;14.00;;;8.80;99.90;;;;;;4884393;29;20249;-81
2023/05/24 02:02:01;;;;;;;77.00;11.90;;;8.70;99.90;;;;;;4884717;29;20588;-81
2023/05/24 02:04:27;;;;;;;78.73;18.90;;;8.60;99.90;;;;;;4883983;29;20266;-81
2023/05/24 02:06:53;;;;;;;75.37;19.50;;;8.50;99.90;;;;;;4882676;29;20443;-81
2023/05/24 02:09:19;;;;;;;71.53;18.33;;;8.50;99.90;;;;;;4883797;29;20918;-81
2023/05/24 02:11:45;;;;;;;71.30;18.73;;;8.40;99.90;;;;;;4884169;29;20411;-81
2023/05/24 02:14:12;;;;;;;81.47;18.20;;;8.40;99.90;;;;;;4884030;29;20210;-81
2023/05/24 02:16:41;;;;;;;72.45;16.85;;;8.30;99.90;;;;;;4884092;29;20193;-81
2023/05/24 02:19:08;;;;;;;74.70;18.95;;;8.20;99.90;;;;;;4883427;29;20178;-81
2023/05/24 02:21:33;;;;;;;79.28;20.95;;;8.20;99.90;;;;;;4882623;29;20174;-81
2023/05/24 02:23:59;;;;;;;75.70;21.17;;;8.20;99.90;;;;;;4882568;29;20751;-81
2023/05/24 02:26:25;;;;;;;74.20;20.20;;;8.20;99.90;;;;;;4882477;29;20190;-81
2023/05/24 02:28:50;;;;;;;83.40;21.70;;;8.20;99.90;;;;;;4883851;29;20177;-81
2023/05/24 02:31:16;;;;;;;76.93;22.47;;;8.10;99.90;;;;;;4884186;29;20602;-81
2023/05/24 02:33:42;;;;;;;81.60;22.00;;;8.00;99.90;;;;;;4882637;29;20210;-81
2023/05/24 02:36:08;;;;;;;71.90;20.70;;;8.00;99.90;;;;;;4883674;29;20522;-81
2023/05/24 02:38:34;;;;;;;79.47;23.57;;;8.00;99.90;;;;;;4882232;29;20191;-81
2023/05/24 02:40:59;;;;;;;75.37;24.00;;;8.00;99.90;;;;;;4882592;29;20528;-81
2023/05/24 02:43:25;;;;;;;75.83;26.27;;;8.00;99.90;;;;;;4882593;29;20179;-81
2023/05/24 02:45:50;;;;;;;77.60;24.33;;;8.00;99.90;;;;;;4883433;29;20229;-81
2023/05/24 02:48:16;;;;;;;78.90;23.83;;;7.90;99.90;;;;;;4883715;29;20166;-81
2023/05/24 02:50:42;;;;;;;77.70;26.93;;;7.90;99.90;;;;;;4883151;29;20163;-81
2023/05/24 02:53:07;;;;;;;77.00;28.30;;;7.90;99.90;;;;;;4883277;29;20199;-81
2023/05/24 02:55:33;;;;;;;74.17;24.90;;;7.80;99.90;;;;;;4882993;29;20174;-80
2023/05/24 02:57:59;;;;;;;74.97;24.30;;;7.90;99.90;;;;;;4883360;29;20174;-81
2023/05/24 03:00:25;;;;;;;74.38;23.67;;;7.90;99.90;;;;;;4881440;29;20178;-81
2023/05/24 03:02:51;;;;;;;77.67;25.90;;;7.80;99.90;;;;;;4882961;29;20171;-81
2023/05/24 03:05:17;;;;;;;81.57;25.47;;;7.80;99.90;;;;;;4883307;29;20451;-81
2023/05/24 03:07:43;;;;;;;76.50;28.83;;;7.80;99.90;;;;;;4883115;29;20186;-81
2023/05/24 03:10:09;;;;;;;78.07;26.33;;;7.80;99.90;;;;;;4882731;29;20227;-81
2023/05/24 03:12:35;;;;;;;78.95;30.00;;;7.80;99.90;;;;;;4883036;29;20665;-81
2023/05/24 03:15:01;;;;;;;82.27;28.27;;;7.70;99.90;;;;;;4881660;29;20183;-81
2023/05/24 03:17:26;;;;;;;77.10;27.63;;;7.70;99.90;;;;;;4882901;29;20339;-81
2023/05/24 03:19:52;;;;;;;76.00;26.63;;;7.70;99.90;;;;;;4882961;29;20415;-81
2023/05/24 03:22:18;;;;;;;78.17;29.10;;;7.60;99.90;;;;;;4883125;29;20239;-81
2023/05/24 03:24:45;;;;;;;77.40;26.05;;;7.60;99.90;;;;;;4883380;29;20205;-81
2023/05/24 03:27:11;;;;;;;74.38;23.40;;;7.60;99.90;;;;;;4881658;29;20697;-81
2023/05/24 03:29:36;;;;;;;75.70;24.70;;;7.70;99.90;;;;;;4883092;29;20171;-81
2023/05/24 03:32:02;;;;;;;81.77;24.30;;;7.70;99.90;;;;;;4883327;29;20416;-82
2023/05/24 03:34:29;;;;;;;81.03;23.65;;;7.70;99.90;;;;;;4882454;29;20548;-82
2023/05/24 03:36:54;;;;;;;78.47;23.95;;;7.70;99.90;;;;;;4881407;29;20270;-81
2023/05/24 03:39:21;;;;;;;77.87;25.47;;;7.70;99.90;;;;;;4946355;23;20678;-79
2023/05/24 03:41:47;;;;;;;76.57;29.05;;;7.70;99.90;;;;;;4883503;29;20167;-79
2023/05/24 03:44:12;;;;;;;82.07;30.47;;;7.60;99.90;;;;;;4882828;29;20201;-79
2023/05/24 03:46:38;;;;;;;82.13;26.10;;;7.60;99.90;;;;;;4883400;29;20198;-79
2023/05/24 03:49:05;;;;;;;77.17;23.27;;;7.70;99.90;;;;;;4883182;29;20167;-79
2023/05/24 03:51:30;;;;;;;75.55;27.30;;;7.70;99.90;;;;;;4882889;29;20238;-79
2023/05/24 03:53:56;;;;;;;78.23;26.13;;;7.80;99.90;;;;;;4882960;29;20215;-79
2023/05/24 03:56:22;;;;;;;76.83;27.30;;;7.80;99.90;;;;;;4882320;29;20194;-79
2023/05/24 03:58:50;;;;;;;80.15;25.02;;;7.80;99.90;;;;;;4882863;29;20198;-79
2023/05/24 04:01:17;;;;;;;78.05;30.70;;;7.80;99.90;;;;;;4883096;29;20519;-79
2023/05/24 04:03:44;;;;;;;75.32;25.67;;;7.80;99.90;;;;;;4883035;29;20170;-79
2023/05/24 04:06:10;;;;;;;76.82;25.35;;;7.80;99.90;;;;;;4883479;29;20202;-79
2023/05/24 04:08:36;;;;;;;78.47;26.75;;;7.80;99.90;;;;;;4882886;29;20177;-79
2023/05/24 04:11:02;;;;;;;76.77;25.43;;;7.80;99.90;;;;;;4883089;29;20205;-79
2023/05/24 04:13:27;;;;;;;75.70;23.67;;;7.80;99.90;;;;;;4882915;29;20173;-79
2023/05/24 04:15:53;;;;;;;74.40;24.83;;;7.80;99.90;;;;;;4882739;29;20684;-79
2023/05/24 04:18:19;;;;;;;76.87;27.40;;;7.80;99.90;;;;;;4883083;29;20222;-79
2023/05/24 04:20:44;;;;;;;77.70;25.20;;;7.90;99.90;;;;;;4882692;29;20670;-79
2023/05/24 04:23:10;;;;;;;76.43;23.67;;;7.90;99.90;;;;;;4882733;29;20638;-79
2023/05/24 04:25:36;;;;;;;78.07;25.47;;;7.90;99.90;;;;;;4882739;29;20619;-79
2023/05/24 04:28:02;;;;;;;79.63;22.00;;;7.90;99.90;;;;;;4882879;29;20290;-79
2023/05/24 04:30:29;;;;;;;78.78;24.92;;;7.90;99.90;;;;;;4881597;29;20166;-79
2023/05/24 04:32:56;;;;;;;81.68;24.00;;;7.90;99.90;;;;;;4881578;29;20182;-79
2023/05/24 04:35:22;;;;;;;80.40;28.85;;;8.00;99.90;;;;;;4882564;29;20520;-79
2023/05/24 04:37:49;;;;;;;77.32;25.50;;;8.00;99.90;;;;;;4882640;29;20190;-79
2023/05/24 04:40:15;;;;;;;80.15;24.25;;;8.10;99.90;;;;;;4884929;29;20199;-79
2023/05/24 04:42:41;;;;;;;76.40;22.23;;;8.30;99.90;;;;;;4886203;29;20253;-79
2023/05/24 04:45:07;;;;;;;76.32;25.60;;;8.40;99.90;;;;;;4886338;29;20819;-79
2023/05/24 04:47:33;;;;;;;78.05;25.20;;;8.70;99.90;;;;;;4885675;29;20186;-79
2023/05/24 04:49:59;;;;;;;80.83;26.70;;;8.90;99.90;;;;;;4885821;29;20266;-79
2023/05/24 04:52:24;;;;;;;76.60;21.93;;;9.10;99.90;;;;;;4886489;29;20199;-79
2023/05/24 04:54:50;;;;;;;77.50;12.33;;;9.30;99.90;;;;;;4884917;29;20202;-79
2023/05/24 04:57:16;;;;;;;72.40;7.40;;;9.40;99.90;;;;;;4885632;29;20194;-79
2023/05/24 04:59:42;;;;;;;73.72;8.23;;;9.50;99.90;;;;;;4886201;29;20175;-79
2023/05/24 05:02:08;;;;;;;73.03;7.25;;;9.60;99.90;;;;;;4885244;29;20662;-79
2023/05/24 05:04:34;;;;;;;78.70;7.30;;;9.90;99.90;;;;;;4885242;29;20198;-79
2023/05/24 05:06:59;;;;;;;72.17;6.30;;;10.00;99.90;;;;;;4885631;29;20667;-79
2023/05/24 05:09:26;;;;;;;75.90;7.23;;;10.20;99.90;;;;;;4886104;29;20179;-79
2023/05/24 05:11:52;;;;;;;73.18;7.13;;;10.40;96.20;;;;;;4885887;29;20179;-79
2023/05/24 05:14:17;;;;;;;71.77;6.47;;;10.40;91.80;;;;;;4885539;29;20166;-79
2023/05/24 05:16:44;;;;;;;78.07;7.47;;;10.50;93.60;;;;;;4885538;29;20250;-79
2023/05/24 05:19:10;;;;;;;72.85;6.80;;;10.50;92.20;;;;;;4885463;29;20169;-79
2023/05/24 05:21:35;;;;;;;78.13;6.47;;;10.50;91.30;;;;;;4885677;29;20175;-79
2023/05/24 05:24:02;;;;;;;78.50;7.87;;;10.40;92.00;;;;;;4885699;29;20226;-78
2023/05/24 05:26:29;;;;;;;75.53;6.82;;;10.40;95.50;;;;;;4885294;29;20182;-79
2023/05/24 05:28:56;;;;;;;74.15;7.13;;;10.40;96.20;;;;;;4885014;29;20528;-79
2023/05/24 05:31:21;;;;;;;78.97;8.07;;;10.50;96.40;;;;;;4885606;29;20164;-79
2023/05/24 05:33:47;;;;;;;82.13;7.33;;;10.60;95.10;;;;;;4885507;29;20584;-79
2023/05/24 05:36:13;;;;;;;81.95;8.77;;;10.50;95.90;;;;;;4885393;29;20431;-78
2023/05/24 05:38:39;;;;;;;80.00;8.27;;;10.50;96.50;;;;;;4885169;29;20194;-78
2023/05/24 05:41:06;;;;;;;84.57;8.43;;;10.40;95.80;;;;;;4885016;29;20414;-79
2023/05/24 05:43:31;;;;;;;76.60;8.23;;;10.30;96.50;;;;;;4885222;29;20169;-79
2023/05/24 05:45:59;;;;;;;76.90;7.10;;;10.40;97.30;;;;;;4884249;29;20203;-79
2023/05/24 05:48:25;;;;;;;71.35;6.70;;;10.30;97.50;;;;;;4885128;29;20199;-79
2023/05/24 05:50:50;;;;;;;73.53;7.20;;;10.40;97.30;;;;;;4884536;29;20174;-79
2023/05/24 05:53:16;;;;;;;87.90;10.60;;;10.50;96.20;;;;;;4884744;29;20178;-78
2023/05/24 05:55:42;;;;;;;73.73;7.83;;;10.40;97.70;;;;;;4884738;29;20650;-79
2023/05/24 05:58:07;;;;;;;80.03;7.23;;;10.50;99.00;;;;;;4885649;29;20583;-79
2023/05/24 06:00:33;;;;;;;75.80;7.77;;;10.50;97.20;;;;;;4885275;29;20186;-79
2023/05/24 06:02:59;;;;;;;78.63;7.60;;;10.60;97.10;;;;;;4884796;29;20547;-79
2023/05/24 06:05:24;;;;;;;84.13;9.17;;;10.70;97.20;;;;;;4885308;29;20270;-79
2023/05/24 06:07:50;;;;;;;80.67;7.37;;;10.70;98.00;;;;;;4884576;29;20216;-79
2023/05/24 06:10:15;;;;;;;76.20;6.90;;;10.80;95.50;;;;;;4884244;29;20635;-79
2023/05/24 06:12:41;;;;;;;78.30;8.30;;;10.90;93.80;;;;;;4885643;29;20170;-79
2023/05/24 06:15:07;;;;;;;82.17;7.50;;;11.00;93.20;;;;;;4884193;29;20167;-79
2023/05/24 06:17:33;;;;;;;78.07;8.65;;;11.00;90.80;;;;;;4884721;29;20190;-79
2023/05/24 06:19:59;;;;;;;78.75;7.68;;;11.10;88.50;;;;;;4883398;29;20266;-79
2023/05/24 06:22:28;;;;;;;85.60;8.40;;;11.10;90.60;;;;;;4885321;29;20196;-79
2023/05/24 06:24:54;;;;;;;81.45;7.68;;;11.20;86.50;;;;;;4883147;29;20455;-79
2023/05/24 06:27:20;;;;;;;77.00;7.30;;;11.30;81.10;;;;;;4883962;29;20689;-79
2023/05/24 06:29:45;;;;;;;79.37;7.57;;;11.30;75.30;;;;;;4883166;29;20164;-79
2023/05/24 06:32:11;;;;;;;74.77;6.90;;;11.30;77.60;;;;;;4884025;29;20598;-78
2023/05/24 06:34:37;;;;;;;79.23;7.10;;;11.30;78.80;;;;;;4884511;29;20190;-79
2023/05/24 06:37:03;;;;;;;79.40;7.30;;;11.40;73.90;;;;;;4884043;29;20277;-79
2023/05/24 06:39:29;;;;;;;79.27;6.23;;;11.50;73.80;;;;;;4883107;29;20195;-80
2023/05/24 06:41:54;;;;;;;73.13;6.67;;;11.50;72.60;;;;;;4883552;29;20396;-79
2023/05/24 06:44:22;;;;;;;87.40;9.27;;;11.60;70.50;;;;;;4882983;29;20198;-79
2023/05/24 06:46:47;;;;;;;84.35;7.50;;;11.60;65.90;;;;;;4882751;29;20555;-80
2023/05/24 06:49:13;;;;;;;76.63;7.07;;;11.60;65.30;;;;;;4882551;29;20178;-79
2023/05/24 06:51:39;;;;;;;76.23;6.73;;;11.60;69.60;;;;;;4884221;29;20227;-78
2023/05/24 06:54:05;;;;;;;80.23;6.97;;;11.60;61.10;;;;;;4884599;29;20178;-79
2023/05/24 06:56:31;;;;;;;79.78;6.78;;;11.70;56.00;;;;;;4884249;29;20197;-79
2023/05/24 06:58:58;;;;;;;82.53;8.68;;;11.70;54.10;;;;;;4882789;29;20179;-78
2023/05/24 07:01:24;;;;;;;74.78;7.20;;;11.80;53.80;;;;;;4882707;29;20182;-78
2023/05/24 07:03:49;;;;;;;71.73;6.53;;;11.80;49.20;;;;;;4883345;29;20167;-78
2023/05/24 07:06:16;;;;;;;79.60;7.30;;;11.90;45.20;;;;;;4883694;29;20262;-79
2023/05/24 07:08:41;;;;;;;85.68;7.88;;;12.00;39.30;;;;;;4883896;29;20201;-78
2023/05/24 07:11:08;;;;;;;79.37;6.83;;;12.10;36.90;;;;;;4882275;29;20643;-78
2023/05/24 07:13:33;;;;;;;82.28;6.30;;;12.30;38.00;;;;;;4883242;29;20193;-78
2023/05/24 07:15:59;;;;;;;77.00;6.63;;;12.30;19.70;;;;;;4883270;29;20198;-79
2023/05/24 07:18:25;;;;;;;81.80;7.03;;;12.40;19.30;;;;;;4883530;29;20187;-78
2023/05/24 07:20:50;;;;;;;79.30;6.57;;;12.50;22.10;;;;;;4883241;29;20198;-78
2023/05/24 07:23:16;;;;;;;85.33;7.57;;;12.70;23.20;;;;;;4882856;29;20174;-78
2023/05/24 07:25:42;;;;;;;77.60;6.70;;;12.70;15.70;;;;;;4882769;29;20194;-78
2023/05/24 07:28:07;;;;;;;78.80;6.30;;;12.60;14.40;;;;;;4883386;29;20163;-79
2023/05/24 07:30:34;;;;;;;74.80;5.73;;;12.60;6.70;;;;;;4883327;29;20166;-79
2023/05/24 07:33:00;;;;;;;75.97;6.47;;;12.70;8.70;;;;;;4883647;29;20170;-79
2023/05/24 07:35:28;;;;;;;79.82;6.70;;;12.80;2.60;;;;;;4882951;29;20166;-79
2023/05/24 07:37:53;;;;;;;75.60;6.53;;;12.80;1.00;;;;;;4883181;29;20265;-78
2023/05/24 07:40:19;;;;;;;73.63;7.37;;;13.00;2.50;;;;;;4883167;29;20902;-79
2023/05/24 07:42:46;;;;;;;80.13;7.97;;;13.00;12.30;;;;;;4883217;29;20171;-79
2023/05/24 07:45:12;;;;;;;82.80;7.57;;;12.90;19.20;;;;;;4883291;29;20187;-78
2023/05/24 07:47:38;;;;;;;79.15;8.18;;;12.90;15.70;;;;;;4882790;29;20183;-79
2023/05/24 07:50:04;;;;;;;78.90;7.53;;;12.80;16.80;;;;;;4882573;29;20242;-79
2023/05/24 07:52:30;;;;;;;90.72;8.40;;;12.70;18.60;;;;;;4882459;29;20181;-79
2023/05/24 07:54:55;;;;;;;84.37;7.70;;;12.60;19.40;;;;;;4882583;29;20175;-79
2023/05/24 07:57:22;;;;;;;71.33;6.33;;;12.60;17.20;;;;;;4882050;29;20223;-79
2023/05/24 07:59:48;;;;;;;83.63;7.03;;;12.60;10.20;;;;;;4882628;29;20167;-79
2023/05/24 08:02:15;;;;;;;79.90;7.00;;;12.60;10.90;;;;;;4882611;29;20177;-79
2023/05/24 08:04:41;;;;;;;78.18;7.13;;;12.60;6.80;;;;;;4882663;29;20531;-79
2023/05/24 08:07:08;;;;;;;73.47;6.45;;;12.60;7.40;;;;;;4882854;29;20186;-79
2023/05/24 08:09:35;;;;;;;76.75;7.72;;;12.70;6.50;;;;;;4882839;29;20198;-79
2023/05/24 08:12:02;;;;;;;73.28;7.68;;;12.80;4.40;;;;;;4883823;29;20237;-79
2023/05/24 08:14:28;;;;;;;73.40;8.05;;;13.00;1.00;;;;;;4886212;29;20170;-79
2023/05/24 08:16:53;;;;;;;78.90;7.50;;;13.00;1.00;;;;;;4886517;29;20214;-78
2023/05/24 08:19:19;;;;;;;76.10;8.70;;;13.10;1.00;;;;;;4885147;29;20596;-79
2023/05/24 08:21:45;;;;;;;82.00;10.32;;;13.20;1.00;;;;;;4886352;29;20313;-79
2023/05/24 08:24:11;;;;;;;79.73;10.83;;;13.30;1.00;;;;;;4885755;29;20174;-79
2023/05/24 08:26:42;;;;;;;78.33;9.60;;;13.20;1.00;;;;;;4886351;29;20270;-78
2023/05/24 08:29:08;;;;;;;79.70;11.18;;;13.10;1.00;;;;;;4886343;29;20406;-77
2023/05/24 08:31:33;;;;;;;75.13;8.43;;;13.00;1.00;;;;;;4886354;29;20167;-77
2023/05/24 08:34:00;;;;;;;74.30;9.50;;;13.00;1.00;;;;;;4886083;29;20551;-79
2023/05/24 08:36:25;;;;;;;79.07;9.27;;;13.00;1.00;;;;;;4884770;29;20202;-79
2023/05/24 08:38:51;;;;;;;72.73;8.77;;;13.10;1.00;;;;;;4885349;29;20182;-79
2023/05/24 08:41:20;;;;;;;84.10;10.30;;;13.20;1.00;;;;;;4885123;29;20234;-79
2023/05/24 08:43:46;;;;;;;72.40;8.27;;;13.30;1.00;;;;;;4885394;29;20166;-79
2023/05/24 08:46:14;;;;;;;80.43;10.20;;;13.40;1.00;;;;;;4885588;29;20461;-79
2023/05/24 08:48:47;;;;;;;73.90;10.77;;;13.60;1.00;;;;;;4884323;29;20415;-78
2023/05/24 08:51:16;;;;;;;80.67;9.27;;;13.70;1.00;;;;;;4885835;29;20411;-79
2023/05/24 08:53:47;;;;;;;79.60;10.10;;;13.70;1.00;;;;;;4885703;29;20503;-79
2023/05/24 08:56:16;;;;;;;77.70;9.93;;;13.80;1.00;;;;;;4884136;29;20439;-79
2023/05/24 08:58:42;;;;;;;79.40;10.40;;;13.90;1.00;;;;;;4885547;29;20418;-79
2023/05/24 09:01:10;;;;;;;74.10;10.90;;;13.90;1.00;;;;;;4885486;29;20419;-79
2023/05/24 09:03:36;;;;;;;79.07;11.27;;;14.10;1.00;;;;;;4885794;29;20419;-79
2023/05/24 09:06:03;;;;;;;82.43;11.37;;;14.20;1.00;;;;;;4884540;29;20466;-79
2023/05/24 09:08:32;;;;;;;82.20;12.90;;;14.40;1.00;;;;;;4885312;29;20411;-79
2023/05/24 09:10:58;;;;;;;82.57;13.33;;;14.60;1.00;;;;;;4885613;29;20403;-79
2023/05/24 09:13:25;;;;;;;86.23;11.30;;;14.40;1.00;;;;;;4886056;29;20411;-78
2023/05/24 09:15:51;;;;;;;76.90;10.80;;;14.30;1.00;;;;;;4886050;29;20918;-78
2023/05/24 09:18:17;;;;;;;78.10;12.20;;;14.10;1.00;;;;;;4885853;29;20904;-79
2023/05/24 09:20:43;;;;;;;81.83;11.57;;;14.00;1.00;;;;;;4885091;29;20411;-78
2023/05/24 09:23:09;;;;;;;81.43;12.07;;;13.90;1.00;;;;;;4884687;29;20179;-79
2023/05/24 09:25:36;;;;;;;91.03;13.30;;;13.90;1.00;;;;;;4883837;29;20690;-79
2023/05/24 09:28:06;;;;;;;88.90;13.57;;;13.90;1.00;;;;;;4885040;29;20383;-78
2023/05/24 09:30:32;;;;;;;79.23;13.20;;;13.80;1.00;;;;;;4883626;29;20510;-79
2023/05/24 09:32:59;;;;;;;85.87;15.53;;;13.90;1.00;;;;;;4885011;29;20440;-79
2023/05/24 09:35:28;;;;;;;83.83;12.27;;;13.90;1.00;;;;;;4883813;29;20434;-78
2023/05/24 09:37:58;;;;;;;76.50;10.35;;;14.00;1.00;;;;;;4950332;23;20447;-81
2023/05/24 09:40:25;;;;;;;84.90;13.17;;;14.20;1.00;;;;;;4876024;29;20444;-81
2023/05/24 09:43:08;;;;;;;83.60;14.23;;;14.40;1.00;;;;;;4891767;29;20447;-81
2023/05/24 09:45:47;;;;;;;94.27;15.20;;;14.50;1.00;;;;;;4876776;29;20968;-81
2023/05/24 09:48:20;;;;;;;81.43;15.23;;;14.80;1.00;;;;;;4876788;29;20483;-80
2023/05/24 09:51:20;;;;;;;79.90;14.20;;;14.80;1.00;;;;;;4891697;29;20510;-81
2023/05/24 09:53:51;;;;;;;94.53;12.67;;;15.10;1.00;;;;;;4890582;29;20503;-81
2023/05/24 09:56:22;;;;;;;84.33;14.80;;;15.20;1.00;;;;;;4877135;29;20431;-81
2023/05/24 09:58:48;;;;;;;84.53;14.33;;;15.30;1.00;;;;;;4876364;29;20408;-81
2023/05/24 10:01:16;;;;;;;81.43;13.93;;;15.40;1.00;;;;;;4876123;29;20481;-81
2023/05/24 10:03:56;;;;;;;82.67;14.60;;;15.60;1.00;;;;;;4891132;29;20242;-83
2023/05/24 10:06:22;;;;;;;84.90;15.10;;;15.50;1.00;;;;;;4877073;29;20849;-80
2023/05/24 10:08:50;;;;;;;87.57;13.13;;;15.60;1.00;;;;;;4876697;29;20401;-81
2023/05/24 10:11:17;;;;;;;84.43;12.30;;;15.70;1.00;;;;;;4861531;29;20421;-81
2023/05/24 10:13:43;;;;;;;85.23;11.90;;;15.60;1.00;;;;;;4891030;29;20445;-80
2023/05/24 10:16:09;;;;;;;81.33;11.80;;;15.70;1.00;;;;;;4876862;29;20439;-81
2023/05/24 10:18:35;;;;;;;87.57;14.53;;;15.80;1.00;;;;;;4875185;29;20432;-81
2023/05/24 10:21:08;;;;;;;83.80;13.93;;;15.60;1.00;;;;;;4891099;29;20421;-81
2023/05/24 10:23:37;;;;;;;80.53;11.93;;;15.80;1.00;;;;;;4874299;29;20392;-80
2023/05/24 10:26:07;;;;;;;84.97;12.37;;;15.90;1.00;;;;;;4874932;29;20465;-81
2023/05/24 10:28:58;;;;;;;84.07;11.00;;;16.20;1.00;;;;;;4886703;29;20497;-80
2023/05/24 10:31:33;;;;;;;81.10;11.20;;;16.50;1.00;;;;;;4875172;29;20886;-80
2023/05/24 10:34:02;;;;;;;86.73;12.00;;;16.20;1.00;;;;;;4856464;29;20421;-80
2023/05/24 10:36:27;;;;;;;82.40;10.63;;;16.10;1.00;;;;;;4870049;29;20436;-80
2023/05/24 10:38:56;;;;;;;83.10;10.17;;;16.00;1.00;;;;;;4871281;29;20506;-80
2023/05/24 10:41:26;;;;;;;85.67;12.47;;;16.00;1.00;;;;;;4868780;29;20193;-80
2023/05/24 10:43:52;;;;;;;82.03;10.53;;;15.90;1.00;;;;;;4884237;29;20420;-81
2023/05/24 10:46:21;;;;;;;76.60;9.40;;;15.90;1.00;;;;;;4869942;29;20478;-80
2023/05/24 10:49:05;;;;;;;79.73;9.30;;;15.80;1.00;;;;;;4870753;29;20420;-80
2023/05/24 10:51:35;;;;;;;73.90;9.07;;;15.80;1.00;;;;;;4867554;29;20415;-81
2023/05/24 10:54:14;;;;;;;82.23;10.50;;;15.90;1.00;;;;;;4867735;29;20393;-80
2023/05/24 10:56:42;;;;;;;86.83;10.03;;;15.90;1.00;;;;;;4868623;29;20516;-81
2023/05/24 10:59:08;;;;;;;87.40;11.20;;;15.90;1.00;;;;;;4871051;29;20395;-80
2023/05/24 11:01:34;;;;;;;78.27;12.10;;;15.90;1.00;;;;;;4886412;29;20487;-80
2023/05/24 11:04:17;;;;;;;79.90;11.37;;;15.90;1.00;;;;;;4871799;29;20150;-81
2023/05/24 11:06:55;;;;;;;76.53;11.00;;;15.90;1.00;;;;;;4866407;29;20460;-81
2023/05/24 11:09:21;;;;;;;81.70;9.83;;;15.80;1.00;;;;;;4881125;29;20486;-80
2023/05/24 11:11:49;;;;;;;76.80;11.30;;;15.70;1.00;;;;;;4881973;29;20413;-81
2023/05/24 11:14:23;;;;;;;79.97;10.90;;;15.80;1.00;;;;;;4868167;29;20402;-81
2023/05/24 11:16:50;;;;;;;82.43;10.60;;;15.60;1.00;;;;;;4883135;29;20442;-81
2023/05/24 11:19:27;;;;;;;81.10;10.70;;;15.60;1.00;;;;;;4870131;29;20502;-81
2023/05/24 11:21:59;;;;;;;80.87;10.10;;;15.60;1.00;;;;;;4871055;29;20399;-81
2023/05/24 11:24:26;;;;;;;81.17;9.00;;;15.90;1.00;;;;;;4869469;29;20526;-81
2023/05/24 11:26:52;;;;;;;82.70;10.60;;;16.10;1.00;;;;;;4869859;29;20791;-81
2023/05/24 11:29:22;;;;;;;72.80;7.83;;;16.20;1.00;;;;;;4866590;29;20402;-81
2023/05/24 11:32:04;;;;;;;80.10;8.37;;;16.30;1.00;;;;;;4865894;29;20410;-81
2023/05/24 11:34:31;;;;;;;80.47;9.30;;;16.60;1.00;;;;;;4867253;29;20907;-81
2023/05/24 11:36:59;;;;;;;71.70;8.60;;;16.70;1.00;;;;;;4867232;29;20434;-80
2023/05/24 11:39:31;;;;;;;75.80;8.83;;;16.80;1.00;;;;;;4881414;29;20459;-81
2023/05/24 11:41:58;;;;;;;79.50;10.10;;;16.90;1.00;;;;;;4883653;29;20508;-81
2023/05/24 11:44:24;;;;;;;80.33;10.63;;;16.90;1.00;;;;;;4868899;29;20774;-81
2023/05/24 11:46:57;;;;;;;76.73;9.33;;;17.00;1.00;;;;;;4878805;29;20447;-81
2023/05/24 11:49:22;;;;;;;75.70;9.40;;;17.20;1.00;;;;;;4864672;29;20476;-82
2023/05/24 11:51:48;;;;;;;81.50;11.23;;;17.40;1.00;;;;;;4864983;29;20830;-81
2023/05/24 11:54:13;;;;;;;75.97;11.97;;;17.60;1.00;;;;;;4866023;29;20164;-81
2023/05/24 11:56:39;;;;;;;76.47;12.90;;;17.80;1.00;;;;;;4865547;29;20196;-80
2023/05/24 11:59:10;;;;;;;78.00;12.70;;;17.60;1.00;;;;;;4865741;29;20167;-81
2023/05/24 12:01:37;;;;;;;75.80;11.43;;;17.50;1.00;;;;;;4866929;29;20631;-81
2023/05/24 12:04:04;;;;;;;72.77;10.97;;;17.30;1.00;;;;;;4866833;29;20411;-80
2023/05/24 12:06:35;;;;;;;81.10;12.20;;;17.00;1.00;;;;;;4864481;29;20550;-81
2023/05/24 12:09:04;;;;;;;77.17;12.30;;;16.70;1.00;;;;;;4865065;29;20818;-81
2023/05/24 12:11:31;;;;;;;81.57;10.60;;;16.60;1.00;;;;;;4865174;29;20408;-81
2023/05/24 12:13:58;;;;;;;79.57;10.53;;;16.40;1.00;;;;;;4865507;29;20416;-80
2023/05/24 12:16:25;;;;;;;73.70;10.77;;;16.10;1.00;;;;;;4878648;29;20449;-80
2023/05/24 12:18:51;;;;;;;79.53;10.37;;;15.70;1.00;;;;;;4879714;29;21003;-81
2023/05/24 12:21:20;;;;;;;80.67;11.33;;;15.80;1.00;;;;;;4865765;29;20483;-80
2023/05/24 12:23:47;;;;;;;80.40;9.67;;;15.80;1.00;;;;;;4866118;29;20822;-80
2023/05/24 12:26:13;;;;;;;72.27;9.87;;;15.80;1.00;;;;;;4879277;29;20476;-81
2023/05/24 12:28:40;;;;;;;77.33;9.17;;;15.70;1.00;;;;;;4865345;29;20498;-81
2023/05/24 12:31:07;;;;;;;81.50;9.43;;;15.60;1.00;;;;;;4864442;29;20481;-80
2023/05/24 12:33:33;;;;;;;84.53;8.73;;;15.50;1.00;;;;;;4864178;29;20407;-81
2023/05/24 12:35:59;;;;;;;72.90;7.50;;;15.50;1.00;;;;;;4865877;29;20438;-80
2023/05/24 12:38:25;;;;;;;76.90;8.60;;;15.30;1.00;;;;;;4867412;29;20184;-81
2023/05/24 12:40:52;;;;;;;73.90;8.23;;;15.40;1.00;;;;;;4868202;29;20446;-80